Time;durP1;ratioP1;P1;durP2;ratioP2;P2;SDS_P1;SDS_P2;PMS_P1;PMS_P2;Temp;Humidity;BMP_temperature;BMP_pressure;BME280_temperature;BME280_humidity;BME280_pressure;Samples;Min_cycle;Max_cycle;Signal;HPM_P1;HPM_P2
2022/10/31 00:00:53;;;;;;;51.25;25.45;;;22.20;62.30;;;;;;4937605;28;20028;-78
2022/10/31 00:03:19;;;;;;;48.50;24.25;;;22.20;62.20;;;;;;4938661;29;20466;-77
2022/10/31 00:05:48;;;;;;;46.92;22.65;;;22.20;62.20;;;;;;4937003;29;20118;-78
2022/10/31 00:08:15;;;;;;;51.85;24.02;;;22.20;62.20;;;;;;4936324;29;20038;-77
2022/10/31 00:10:42;;;;;;;44.95;22.77;;;22.20;62.10;;;;;;4937859;29;20382;-78
2022/10/31 00:13:09;;;;;;;49.55;23.77;;;22.10;62.30;;;;;;4938140;29;20414;-77
2022/10/31 00:15:36;;;;;;;47.50;22.77;;;22.20;62.20;;;;;;4938460;29;20043;-78
2022/10/31 00:18:03;;;;;;;40.03;21.58;;;22.10;62.30;;;;;;4938172;29;20048;-78
2022/10/31 00:20:29;;;;;;;42.08;21.60;;;22.10;62.10;;;;;;4938226;29;20434;-77
2022/10/31 00:22:59;;;;;;;46.92;23.48;;;21.90;62.20;;;;;;4937207;29;20028;-78
2022/10/31 00:25:27;;;;;;;44.55;23.20;;;21.90;62.40;;;;;;4937925;29;20036;-78
2022/10/31 00:27:52;;;;;;;41.85;22.40;;;21.80;62.90;;;;;;4937853;29;20051;-77
2022/10/31 00:30:18;;;;;;;44.47;22.08;;;21.80;62.80;;;;;;4938025;29;20123;-78
2022/10/31 00:32:44;;;;;;;45.20;23.88;;;21.80;63.00;;;;;;4936938;29;20039;-79
2022/10/31 00:35:09;;;;;;;51.67;25.13;;;21.60;62.70;;;;;;4938000;29;20103;-77
2022/10/31 00:37:35;;;;;;;45.55;22.65;;;21.40;63.20;;;;;;4937780;29;20111;-78
2022/10/31 00:40:01;;;;;;;46.35;23.55;;;21.40;63.50;;;;;;4935661;29;20028;-78
2022/10/31 00:42:27;;;;;;;44.63;21.92;;;21.40;63.60;;;;;;4952619;29;20091;-77
2022/10/31 00:44:52;;;;;;;44.13;21.63;;;21.60;63.00;;;;;;4937608;29;20024;-77
2022/10/31 00:47:18;;;;;;;49.15;23.20;;;21.70;62.70;;;;;;4937961;29;20036;-77
2022/10/31 00:49:44;;;;;;;48.85;23.23;;;21.50;63.20;;;;;;4952407;29;20046;-78
2022/10/31 00:52:09;;;;;;;56.58;24.10;;;21.60;62.90;;;;;;4937371;29;20066;-78
2022/10/31 00:54:35;;;;;;;52.78;24.67;;;21.60;62.90;;;;;;4936519;29;20485;-77
2022/10/31 00:57:00;;;;;;;52.58;25.50;;;21.70;62.80;;;;;;4937585;29;20034;-78
2022/10/31 00:59:26;;;;;;;58.55;28.33;;;21.80;62.70;;;;;;4937431;29;20020;-77
2022/10/31 01:01:52;;;;;;;55.30;26.70;;;21.80;62.60;;;;;;4937775;29;20027;-77
2022/10/31 01:04:17;;;;;;;55.70;26.52;;;21.80;62.50;;;;;;4952133;29;20083;-77
2022/10/31 01:06:43;;;;;;;61.22;27.17;;;21.80;62.40;;;;;;4936006;29;20043;-77
2022/10/31 01:09:09;;;;;;;57.58;26.58;;;21.90;62.40;;;;;;4936704;29;20043;-77
2022/10/31 01:11:35;;;;;;;57.92;26.25;;;21.90;62.40;;;;;;4934585;29;20030;-77
2022/10/31 01:14:00;;;;;;;56.78;30.30;;;21.90;62.30;;;;;;4937291;29;20494;-78
2022/10/31 01:16:27;;;;;;;55.40;24.88;;;22.00;62.50;;;;;;4936850;29;20071;-77
2022/10/31 01:18:53;;;;;;;57.70;27.90;;;22.00;62.50;;;;;;4936288;29;20031;-78
2022/10/31 01:21:27;;;;;;;54.63;31.35;;;22.00;62.30;;;;;;4937217;29;20390;-77
2022/10/31 01:23:55;;;;;;;48.65;23.38;;;22.00;62.50;;;;;;4936129;28;20039;-77
2022/10/31 01:26:26;;;;;;;51.65;24.67;;;22.00;62.50;;;;;;4936433;29;20115;-78
2022/10/31 01:28:58;;;;;;;49.28;23.05;;;22.00;62.40;;;;;;4936501;29;20043;-77
2022/10/31 01:31:27;;;;;;;48.10;24.02;;;21.90;62.40;;;;;;4937046;29;20032;-78
2022/10/31 01:33:54;;;;;;;46.67;23.73;;;21.90;62.50;;;;;;4936165;29;20385;-78
2022/10/31 01:36:21;;;;;;;44.90;22.85;;;21.90;62.40;;;;;;4936812;29;20028;-78
2022/10/31 01:38:49;;;;;;;41.20;21.13;;;21.90;62.40;;;;;;4935834;29;20509;-77
2022/10/31 01:41:18;;;;;;;40.45;21.45;;;21.90;62.40;;;;;;4935603;29;20036;-77
2022/10/31 01:43:54;;;;;;;46.65;23.10;;;21.90;62.40;;;;;;4936783;29;20028;-76
2022/10/31 01:46:37;;;;;;;55.08;24.48;;;21.70;62.80;;;;;;4933672;29;20043;-77
2022/10/31 01:49:09;;;;;;;46.05;23.27;;;21.80;62.40;;;;;;4935821;29;20418;-77
2022/10/31 01:51:43;;;;;;;53.17;24.95;;;21.70;62.40;;;;;;4936640;29;20032;-77
2022/10/31 01:54:12;;;;;;;54.13;24.65;;;21.80;62.40;;;;;;4934915;29;20079;-77
2022/10/31 01:56:42;;;;;;;40.20;22.15;;;21.80;62.20;;;;;;4936963;29;20494;-77
2022/10/31 01:59:12;;;;;;;44.87;22.83;;;21.80;62.50;;;;;;4936591;29;20470;-78
2022/10/31 02:01:39;;;;;;;46.03;22.30;;;21.70;62.60;;;;;;4936346;29;20038;-77
2022/10/31 02:04:06;;;;;;;46.50;22.95;;;21.70;62.70;;;;;;4936375;28;20044;-77
2022/10/31 02:06:38;;;;;;;47.25;22.35;;;21.70;62.70;;;;;;4936408;29;20036;-77
2022/10/31 02:09:05;;;;;;;49.65;21.73;;;21.60;62.80;;;;;;4936062;29;20035;-77
2022/10/31 02:11:32;;;;;;;46.63;23.52;;;21.70;62.40;;;;;;4936473;29;20411;-77
2022/10/31 02:14:00;;;;;;;52.47;25.27;;;21.70;62.30;;;;;;4936054;29;20360;-77
2022/10/31 02:16:26;;;;;;;56.15;24.30;;;21.80;62.40;;;;;;4936074;29;20155;-77
2022/10/31 02:18:52;;;;;;;45.72;22.15;;;21.50;63.10;;;;;;4934800;29;20035;-77
2022/10/31 02:21:33;;;;;;;53.63;25.05;;;21.20;63.70;;;;;;4936058;29;20359;-77
2022/10/31 02:24:26;;;;;;;63.72;26.65;;;21.30;63.40;;;;;;4935965;29;20023;-77
2022/10/31 02:26:55;;;;;;;50.58;23.35;;;21.40;63.40;;;;;;4934466;29;20028;-76
2022/10/31 02:29:45;;;;;;;50.45;23.58;;;21.40;63.20;;;;;;4935662;29;20410;-77
2022/10/31 02:32:32;;;;;;;48.67;23.92;;;21.40;63.00;;;;;;4935897;29;20367;-77
2022/10/31 02:35:13;;;;;;;47.90;22.60;;;21.50;62.90;;;;;;4935897;29;20356;-77
2022/10/31 02:37:55;;;;;;;57.30;23.00;;;21.60;62.70;;;;;;4935067;29;20028;-77
2022/10/31 02:40:20;;;;;;;46.72;22.48;;;21.60;62.50;;;;;;4936376;29;20070;-77
2022/10/31 02:43:05;;;;;;;49.22;22.35;;;21.70;62.40;;;;;;4935700;29;20099;-77
2022/10/31 02:45:44;;;;;;;51.92;24.13;;;21.50;62.60;;;;;;4935935;29;20028;-77
2022/10/31 02:48:14;;;;;;;52.17;22.95;;;21.50;62.50;;;;;;4935581;29;20383;-77
2022/10/31 02:50:47;;;;;;;44.63;22.83;;;21.60;62.50;;;;;;4950672;29;20042;-77
2022/10/31 02:53:15;;;;;;;49.88;22.67;;;21.60;63.00;;;;;;4934736;29;20019;-77
2022/10/31 02:55:59;;;;;;;49.40;22.90;;;21.70;62.40;;;;;;4935744;29;20043;-78
2022/10/31 02:58:29;;;;;;;43.22;21.35;;;21.70;62.40;;;;;;4934852;29;20028;-77
2022/10/31 03:01:34;;;;;;;40.17;21.23;;;21.70;62.50;;;;;;4935837;29;20047;-77
2022/10/31 03:04:26;;;;;;;46.55;21.42;;;21.60;62.60;;;;;;4930202;29;20052;-77
2022/10/31 03:07:13;;;;;;;49.42;22.33;;;21.40;63.00;;;;;;4934211;29;20024;-77
2022/10/31 03:10:24;;;;;;;56.55;22.52;;;21.50;62.80;;;;;;4933862;29;20368;-77
2022/10/31 03:13:18;;;;;;;49.95;23.45;;;21.40;63.00;;;;;;4880076;29;20119;-77
2022/10/31 03:15:48;;;;;;;49.10;22.83;;;21.40;63.00;;;;;;4895043;29;20116;-77
2022/10/31 03:18:39;;;;;;;57.83;24.08;;;21.50;62.80;;;;;;4895185;29;20036;-77
2022/10/31 03:21:10;;;;;;;54.00;22.85;;;21.50;62.60;;;;;;4895593;29;20156;-77
2022/10/31 03:23:37;;;;;;;50.03;22.90;;;21.50;62.60;;;;;;4895391;29;20087;-77
2022/10/31 03:26:07;;;;;;;51.08;22.85;;;21.40;62.50;;;;;;4894713;29;20033;-77
2022/10/31 03:28:50;;;;;;;45.53;22.85;;;21.30;63.00;;;;;;4895294;29;20169;-77
2022/10/31 03:31:19;;;;;;;48.50;21.73;;;21.40;63.00;;;;;;4895421;29;20029;-77
2022/10/31 03:33:47;;;;;;;55.40;23.52;;;21.40;63.40;;;;;;4895649;29;20045;-77
2022/10/31 03:36:15;;;;;;;53.55;22.35;;;21.40;63.20;;;;;;4898417;29;20029;-77
2022/10/31 03:38:45;;;;;;;54.00;22.25;;;21.50;62.90;;;;;;4898413;29;20041;-77
2022/10/31 03:41:16;;;;;;;55.47;23.77;;;21.60;62.70;;;;;;4898842;29;20145;-77
2022/10/31 03:43:50;;;;;;;56.15;22.75;;;21.60;62.50;;;;;;4898925;29;20308;-77
2022/10/31 03:46:16;;;;;;;67.03;25.75;;;21.60;62.30;;;;;;4909991;29;20380;-77
2022/10/31 03:48:42;;;;;;;55.92;23.13;;;21.60;62.40;;;;;;4937376;29;20046;-77
2022/10/31 03:51:25;;;;;;;48.70;21.65;;;21.60;62.50;;;;;;4938751;29;20459;-77
2022/10/31 03:53:57;;;;;;;52.60;23.35;;;21.60;62.40;;;;;;4939028;29;20024;-77
2022/10/31 03:56:44;;;;;;;55.78;23.23;;;21.60;62.50;;;;;;4937772;29;20471;-78
2022/10/31 03:59:44;;;;;;;47.55;22.05;;;21.50;62.60;;;;;;4953511;29;20035;-78
2022/10/31 04:02:20;;;;;;;57.42;22.65;;;21.40;62.90;;;;;;4930230;29;20032;-78
2022/10/31 04:04:47;;;;;;;60.83;23.55;;;21.30;63.10;;;;;;4937139;29;20056;-77
2022/10/31 04:07:14;;;;;;;57.13;21.75;;;21.30;63.10;;;;;;4937993;29;20050;-78
2022/10/31 04:09:44;;;;;;;61.20;21.52;;;21.30;63.30;;;;;;4937262;29;20046;-77
2022/10/31 04:12:14;;;;;;;80.80;23.42;;;21.30;63.10;;;;;;4938364;29;20091;-77
2022/10/31 04:14:43;;;;;;;53.72;22.33;;;21.30;63.00;;;;;;4937257;29;20059;-78
2022/10/31 04:17:13;;;;;;;49.97;20.38;;;21.30;63.10;;;;;;4936495;29;20031;-77
2022/10/31 04:19:39;;;;;;;46.50;20.05;;;21.30;63.10;;;;;;4938295;29;20514;-78
2022/10/31 04:22:05;;;;;;;46.75;18.65;;;21.30;63.10;;;;;;4936459;29;20488;-78
2022/10/31 04:24:30;;;;;;;52.72;19.75;;;21.20;63.10;;;;;;4938284;29;20534;-77
2022/10/31 04:26:56;;;;;;;48.05;18.58;;;21.00;63.60;;;;;;4937826;29;20031;-78
2022/10/31 04:29:22;;;;;;;54.10;19.10;;;20.90;63.80;;;;;;4937884;29;20052;-77
2022/10/31 04:31:47;;;;;;;51.60;19.35;;;20.80;64.20;;;;;;4938032;29;20034;-77
2022/10/31 04:34:13;;;;;;;53.20;18.85;;;20.90;63.80;;;;;;4936557;29;20111;-77
2022/10/31 04:36:39;;;;;;;55.70;19.50;;;21.10;63.50;;;;;;4936016;29;20034;-77
2022/10/31 04:39:04;;;;;;;45.03;17.98;;;21.10;63.50;;;;;;4938157;29;20032;-77
2022/10/31 04:41:30;;;;;;;67.80;20.15;;;21.10;63.30;;;;;;4936651;29;20127;-77
2022/10/31 04:43:55;;;;;;;49.10;19.27;;;21.10;63.20;;;;;;4937707;29;20074;-77
2022/10/31 04:46:21;;;;;;;51.13;18.45;;;21.20;63.50;;;;;;4936647;29;20062;-77
2022/10/31 04:48:47;;;;;;;69.85;20.77;;;21.10;63.40;;;;;;4951799;29;20039;-77
2022/10/31 04:51:12;;;;;;;57.45;19.67;;;21.20;63.10;;;;;;4937563;29;20027;-77
2022/10/31 04:53:38;;;;;;;60.78;19.83;;;21.20;63.00;;;;;;4936794;29;20031;-78
2022/10/31 04:56:04;;;;;;;49.78;18.00;;;21.20;63.00;;;;;;4936252;29;20031;-78
2022/10/31 04:58:30;;;;;;;59.42;18.63;;;21.30;63.60;;;;;;4936792;29;20023;-78
2022/10/31 05:00:56;;;;;;;59.00;22.65;;;21.30;62.90;;;;;;4937710;29;20042;-77
2022/10/31 05:03:22;;;;;;;59.17;19.02;;;21.40;62.80;;;;;;4936683;29;20027;-77
2022/10/31 05:05:47;;;;;;;50.90;19.27;;;21.20;63.30;;;;;;4937351;29;20086;-77
2022/10/31 05:08:14;;;;;;;56.28;20.05;;;21.30;63.20;;;;;;4951372;29;20364;-78
2022/10/31 05:10:40;;;;;;;46.53;18.25;;;21.30;63.10;;;;;;4937373;29;20039;-78
2022/10/31 05:13:06;;;;;;;44.47;18.27;;;21.30;63.10;;;;;;4936718;29;20079;-78
2022/10/31 05:15:32;;;;;;;49.53;19.45;;;21.00;64.10;;;;;;4936896;29;20549;-77
2022/10/31 05:17:58;;;;;;;49.65;18.30;;;20.90;64.40;;;;;;4939955;29;20027;-77
2022/10/31 05:20:26;;;;;;;57.28;19.88;;;20.80;64.80;;;;;;4937000;29;20028;-77
2022/10/31 05:22:54;;;;;;;55.22;20.48;;;21.00;64.30;;;;;;4936768;29;20364;-77
2022/10/31 05:25:22;;;;;;;69.32;23.27;;;21.20;63.90;;;;;;4936504;29;20036;-77
2022/10/31 05:27:49;;;;;;;61.78;21.92;;;21.30;63.30;;;;;;4936446;29;20083;-78
2022/10/31 05:30:18;;;;;;;71.85;22.45;;;21.40;63.20;;;;;;4935230;29;20510;-77
2022/10/31 05:32:46;;;;;;;68.32;23.10;;;21.50;62.70;;;;;;4924970;29;20035;-77
2022/10/31 05:35:14;;;;;;;79.57;24.95;;;21.50;62.80;;;;;;4921907;29;20052;-77
2022/10/31 05:37:40;;;;;;;92.45;25.98;;;21.50;63.00;;;;;;4922500;29;20058;-77
2022/10/31 05:40:08;;;;;;;71.60;25.08;;;21.50;63.00;;;;;;4929405;29;20475;-76
2022/10/31 05:42:34;;;;;;;82.10;26.48;;;21.50;63.10;;;;;;4929180;29;20132;-77
2022/10/31 05:45:00;;;;;;;75.40;25.40;;;21.60;63.10;;;;;;4924668;29;20027;-76
2022/10/31 05:47:26;;;;;;;82.30;26.67;;;21.60;63.00;;;;;;4905932;29;20031;-77
2022/10/31 05:49:51;;;;;;;62.15;23.15;;;21.40;63.20;;;;;;4929679;29;20040;-77
2022/10/31 05:52:18;;;;;;;85.78;25.88;;;21.40;63.20;;;;;;4910247;29;20596;-77
2022/10/31 05:54:44;;;;;;;81.63;27.20;;;21.40;63.90;;;;;;4900213;29;20112;-77
2022/10/31 05:57:09;;;;;;;77.82;26.85;;;21.50;63.40;;;;;;4915473;29;20099;-77
2022/10/31 05:59:35;;;;;;;80.85;26.40;;;21.50;63.40;;;;;;4916477;29;20032;-77
2022/10/31 06:02:01;;;;;;;89.18;32.35;;;21.40;63.50;;;;;;4907339;29;20035;-77
2022/10/31 06:04:26;;;;;;;77.38;30.80;;;21.50;63.60;;;;;;4915342;29;20474;-77
2022/10/31 06:06:52;;;;;;;100.85;33.58;;;21.40;63.90;;;;;;4918646;29;20380;-78
2022/10/31 06:09:18;;;;;;;89.28;29.42;;;21.50;63.40;;;;;;4917226;29;20505;-79
2022/10/31 06:11:44;;;;;;;99.70;31.92;;;21.60;63.40;;;;;;4899668;29;20481;-78
2022/10/31 06:14:09;;;;;;;91.28;28.40;;;21.60;63.40;;;;;;4916209;29;20035;-78
2022/10/31 06:16:35;;;;;;;71.78;27.73;;;21.60;63.30;;;;;;4912808;29;20033;-78
2022/10/31 06:19:00;;;;;;;76.93;27.20;;;21.50;63.90;;;;;;4925869;29;20038;-78
2022/10/31 06:21:26;;;;;;;73.57;26.92;;;21.60;63.90;;;;;;4928999;29;20020;-78
2022/10/31 06:23:52;;;;;;;84.63;28.83;;;21.60;63.20;;;;;;4922426;29;20031;-78
2022/10/31 06:26:17;;;;;;;86.25;28.20;;;21.60;63.10;;;;;;4914926;29;20059;-77
2022/10/31 06:28:43;;;;;;;81.53;27.73;;;21.50;63.60;;;;;;4908055;29;20490;-77
2022/10/31 06:31:09;;;;;;;72.80;27.90;;;21.10;64.70;;;;;;4934509;29;20028;-78
2022/10/31 06:33:34;;;;;;;71.70;29.33;;;20.90;65.10;;;;;;4935618;29;20028;-77
2022/10/31 06:36:01;;;;;;;75.13;30.30;;;20.90;65.40;;;;;;4934759;29;20431;-78
2022/10/31 06:38:27;;;;;;;74.82;28.55;;;21.00;65.20;;;;;;4935298;29;20046;-78
2022/10/31 06:40:53;;;;;;;69.95;29.95;;;21.00;65.10;;;;;;4933659;29;20034;-78
2022/10/31 06:43:23;;;;;;;72.55;30.48;;;20.90;65.30;;;;;;4935538;29;20090;-78
2022/10/31 06:45:48;;;;;;;86.07;30.80;;;21.00;65.00;;;;;;4950358;29;20424;-75
2022/10/31 06:48:14;;;;;;;80.30;30.25;;;21.00;64.90;;;;;;4934126;29;20557;-76
2022/10/31 06:50:40;;;;;;;70.97;29.15;;;21.10;65.20;;;;;;4934949;29;20038;-77
2022/10/31 06:53:06;;;;;;;74.40;29.67;;;21.10;65.00;;;;;;4950024;29;20035;-76
2022/10/31 06:55:31;;;;;;;63.17;29.08;;;20.90;65.30;;;;;;4935359;29;20024;-78
2022/10/31 06:57:59;;;;;;;61.28;27.02;;;20.40;66.20;;;;;;4935676;29;20026;-77
2022/10/31 07:00:27;;;;;;;78.40;31.88;;;19.70;68.00;;;;;;4935447;29;20620;-77
2022/10/31 07:03:01;;;;;;;55.88;26.52;;;19.50;69.90;;;;;;4932744;29;20122;-77
2022/10/31 07:05:28;;;;;;;106.72;50.53;;;19.60;68.90;;;;;;4934501;29;20110;-76
2022/10/31 07:08:00;;;;;;;55.72;26.98;;;19.50;68.70;;;;;;4250316;28;10001169;-77
2022/10/31 07:10:27;;;;;;;64.63;34.08;;;18.70;70.80;;;;;;4932155;28;20426;-77
2022/10/31 07:13:00;;;;;;;48.15;23.90;;;18.40;72.30;;;;;;4936047;29;20095;-78
2022/10/31 07:15:28;;;;;;;50.90;25.48;;;18.30;72.30;;;;;;4935452;29;20028;-78
2022/10/31 07:17:58;;;;;;;65.38;32.85;;;18.20;72.90;;;;;;4935522;29;20551;-78
2022/10/31 07:20:24;;;;;;;57.20;26.13;;;18.30;73.90;;;;;;4935066;29;20035;-79
2022/10/31 07:22:50;;;;;;;54.30;25.35;;;18.70;72.70;;;;;;4934351;29;20040;-79
2022/10/31 07:25:15;;;;;;;61.63;27.83;;;18.90;71.60;;;;;;4935682;29;20514;-79
2022/10/31 07:27:42;;;;;;;56.47;26.02;;;18.90;72.10;;;;;;4934358;29;20040;-78
2022/10/31 07:30:10;;;;;;;52.35;24.88;;;19.20;71.10;;;;;;4933318;29;20122;-76
2022/10/31 07:32:43;;;;;;;52.65;25.17;;;19.20;71.00;;;;;;4934468;29;20023;-79
2022/10/31 07:35:18;;;;;;;56.92;28.27;;;19.20;70.00;;;;;;4949081;29;20043;-78
2022/10/31 07:37:44;;;;;;;59.55;29.63;;;19.30;70.60;;;;;;4930716;29;20036;-77
2022/10/31 07:40:11;;;;;;;48.00;23.95;;;19.40;70.50;;;;;;4934320;29;20750;-77
2022/10/31 07:42:37;;;;;;;54.95;28.20;;;19.50;70.10;;;;;;4933764;29;20034;-77
2022/10/31 07:45:04;;;;;;;48.50;23.15;;;19.50;70.20;;;;;;4933188;29;20517;-77
2022/10/31 07:47:29;;;;;;;38.47;20.75;;;19.60;69.80;;;;;;4934135;29;20047;-78
2022/10/31 07:49:55;;;;;;;40.13;21.98;;;19.20;70.10;;;;;;4934680;29;20409;-78
2022/10/31 07:52:20;;;;;;;41.13;21.90;;;18.90;70.60;;;;;;4934858;29;20123;-78
2022/10/31 07:54:46;;;;;;;48.97;24.52;;;18.80;71.70;;;;;;4934640;29;20031;-79
2022/10/31 07:57:12;;;;;;;43.00;23.60;;;18.60;72.90;;;;;;4933734;29;20031;-78
2022/10/31 07:59:37;;;;;;;42.38;23.30;;;18.70;71.60;;;;;;4933959;29;20044;-80
2022/10/31 08:02:03;;;;;;;45.53;21.58;;;18.80;71.60;;;;;;4933529;29;20533;-79
2022/10/31 08:04:29;;;;;;;45.33;22.15;;;18.40;72.70;;;;;;4933739;29;20094;-79
2022/10/31 08:06:54;;;;;;;46.33;23.60;;;18.40;73.10;;;;;;4933743;29;20038;-78
2022/10/31 08:09:20;;;;;;;40.63;22.67;;;18.60;71.60;;;;;;4933043;29;20044;-79
2022/10/31 08:11:46;;;;;;;41.47;22.52;;;18.60;72.70;;;;;;4935180;29;20123;-77
2022/10/31 08:14:11;;;;;;;46.75;23.23;;;19.10;71.60;;;;;;4934776;29;20102;-78
2022/10/31 08:16:37;;;;;;;45.67;21.52;;;19.50;70.40;;;;;;4935273;29;20031;-77
2022/10/31 08:19:02;;;;;;;49.25;23.20;;;19.90;69.30;;;;;;4949425;29;20039;-78
2022/10/31 08:21:28;;;;;;;47.65;22.58;;;20.40;67.70;;;;;;4933995;29;20035;-79
2022/10/31 08:23:54;;;;;;;47.42;23.83;;;19.90;67.90;;;;;;4932740;29;20034;-77
2022/10/31 08:26:19;;;;;;;43.92;21.48;;;19.80;69.20;;;;;;4933345;29;20028;-79
2022/10/31 08:28:46;;;;;;;45.38;21.38;;;20.10;68.30;;;;;;4935769;29;20066;-78
2022/10/31 08:31:11;;;;;;;44.80;22.25;;;20.60;67.20;;;;;;4932320;29;20431;-81
2022/10/31 08:33:37;;;;;;;54.00;23.73;;;20.90;65.90;;;;;;4932561;29;20032;-78
2022/10/31 08:36:03;;;;;;;42.97;21.92;;;21.00;65.90;;;;;;4913026;29;20748;-79
2022/10/31 08:38:29;;;;;;;46.40;23.75;;;21.20;64.90;;;;;;4911276;29;20036;-78
2022/10/31 08:40:54;;;;;;;44.97;23.42;;;21.20;65.30;;;;;;4928847;29;20721;-78
2022/10/31 08:43:20;;;;;;;47.67;24.95;;;21.40;64.70;;;;;;4936928;29;20055;-79
2022/10/31 08:45:49;;;;;;;44.80;23.42;;;21.40;63.70;;;;;;4933263;29;20031;-77
2022/10/31 08:48:16;;;;;;;53.90;27.60;;;20.90;65.30;;;;;;4917021;29;20040;-77
2022/10/31 08:50:43;;;;;;;53.78;25.55;;;20.90;66.00;;;;;;4933176;29;20059;-78
2022/10/31 08:53:12;;;;;;;53.10;24.80;;;21.00;65.70;;;;;;4916991;29;20103;-78
2022/10/31 08:55:39;;;;;;;57.50;24.40;;;21.10;65.30;;;;;;4932954;29;20035;-77
2022/10/31 08:58:07;;;;;;;55.45;25.20;;;21.30;64.90;;;;;;4916666;29;20035;-79
2022/10/31 09:00:34;;;;;;;59.47;26.17;;;21.30;64.50;;;;;;4922348;29;20089;-78
2022/10/31 09:03:02;;;;;;;53.97;25.33;;;21.30;64.60;;;;;;4924242;29;20027;-78
2022/10/31 09:05:28;;;;;;;56.40;24.98;;;21.20;65.00;;;;;;4941582;29;20158;-78
2022/10/31 09:07:58;;;;;;;52.35;25.08;;;21.30;64.60;;;;;;4935714;29;20122;-76
2022/10/31 09:10:25;;;;;;;50.35;23.05;;;21.30;64.60;;;;;;4936896;29;20043;-79
2022/10/31 09:12:59;;;;;;;55.38;25.48;;;21.20;64.30;;;;;;4937349;29;20055;-78
2022/10/31 09:15:25;;;;;;;49.42;23.65;;;21.10;64.70;;;;;;4920800;29;20039;-80
2022/10/31 09:17:52;;;;;;;56.88;26.00;;;21.20;64.90;;;;;;4933913;29;20393;-77
2022/10/31 09:20:18;;;;;;;51.90;26.10;;;21.30;64.80;;;;;;4930478;29;20102;-78
2022/10/31 09:22:44;;;;;;;53.25;25.83;;;21.10;65.00;;;;;;4933914;29;20471;-77
2022/10/31 09:25:10;;;;;;;45.92;23.52;;;21.10;65.40;;;;;;4937866;29;20360;-77
2022/10/31 09:27:35;;;;;;;45.50;23.63;;;21.30;64.80;;;;;;4932378;29;20075;-79
2022/10/31 09:30:02;;;;;;;46.08;23.38;;;21.40;64.80;;;;;;4926186;29;20572;-78
2022/10/31 09:32:27;;;;;;;46.72;23.73;;;21.50;64.30;;;;;;4931317;29;20035;-79
2022/10/31 09:34:53;;;;;;;43.30;22.13;;;21.40;64.60;;;;;;4933136;29;20040;-79
2022/10/31 09:37:18;;;;;;;45.65;23.95;;;21.30;64.70;;;;;;4933159;29;20028;-78
2022/10/31 09:39:44;;;;;;;36.45;19.88;;;21.20;64.70;;;;;;4937058;29;20039;-79
2022/10/31 09:42:13;;;;;;;33.30;19.27;;;20.90;65.30;;;;;;4933959;29;20462;-79
2022/10/31 09:44:47;;;;;;;32.97;17.15;;;20.10;67.70;;;;;;4936264;29;20038;-79
2022/10/31 09:47:54;;;;;;;38.30;18.92;;;19.50;68.20;;;;;;4935029;29;20067;-79
2022/10/31 09:50:40;;;;;;;51.55;22.35;;;19.30;69.10;;;;;;4896220;29;20059;-78
2022/10/31 09:53:17;;;;;;;42.38;21.20;;;19.70;69.10;;;;;;4897262;29;20029;-77
2022/10/31 09:55:47;;;;;;;48.03;23.08;;;20.20;67.50;;;;;;4896262;29;20195;-81
2022/10/31 09:58:23;;;;;;;48.95;23.88;;;20.50;66.80;;;;;;4895085;29;20124;-81
2022/10/31 10:00:49;;;;;;;45.53;23.13;;;20.80;66.30;;;;;;4554303;29;10000309;-77
2022/10/31 10:03:40;;;;;;;45.63;22.42;;;21.00;65.60;;;;;;4892570;29;20123;-79
2022/10/31 10:06:21;;;;;;;41.40;21.70;;;21.00;65.10;;;;;;4876612;29;20060;-79
2022/10/31 10:08:46;;;;;;;40.20;21.58;;;21.10;65.20;;;;;;4892290;29;20053;-78
2022/10/31 10:11:43;;;;;;;42.60;20.77;;;20.90;65.40;;;;;;4877091;29;20048;-77
2022/10/31 10:14:38;;;;;;;35.72;19.70;;;20.70;66.70;;;;;;4894179;29;20067;-79
2022/10/31 10:17:19;;;;;;;39.85;20.40;;;19.60;68.40;;;;;;4884645;29;20052;-81
2022/10/31 10:20:01;;;;;;;41.42;21.10;;;18.60;71.00;;;;;;4892752;29;20039;-80
2022/10/31 10:22:35;;;;;;;43.40;21.73;;;18.40;73.20;;;;;;4893362;29;20105;-81
2022/10/31 10:25:19;;;;;;;41.75;21.92;;;18.70;71.80;;;;;;4891704;29;20025;-79
2022/10/31 10:28:19;;;;;;;50.05;23.20;;;18.90;72.00;;;;;;4923863;29;20498;-79
2022/10/31 10:30:54;;;;;;;45.67;22.77;;;19.50;70.30;;;;;;4932142;29;20048;-79
2022/10/31 10:33:26;;;;;;;43.47;23.35;;;20.00;68.30;;;;;;4933188;29;20035;-79
2022/10/31 10:36:18;;;;;;;37.17;20.13;;;20.50;67.30;;;;;;4933116;29;20035;-80
2022/10/31 10:38:59;;;;;;;40.33;20.05;;;19.80;67.50;;;;;;4923398;29;20398;-81
2022/10/31 10:41:30;;;;;;;38.85;21.73;;;19.30;70.10;;;;;;4934272;29;20200;-78
2022/10/31 10:43:55;;;;;;;40.22;24.02;;;19.80;68.50;;;;;;4933295;29;20048;-79
2022/10/31 10:49:31;;;;;;;35.00;19.50;;;19.40;68.90;;;;;;4932947;29;20116;-81
2022/10/31 10:52:07;;;;;;;39.83;21.17;;;18.70;72.10;;;;;;4933062;29;20494;-85
2022/10/31 10:54:41;;;;;;;41.53;20.75;;;19.10;70.80;;;;;;4932565;29;20720;-81
2022/10/31 10:57:15;;;;;;;33.33;18.85;;;19.60;68.50;;;;;;4944551;29;20094;-81
2022/10/31 10:59:40;;;;;;;36.00;20.33;;;19.20;69.40;;;;;;4931465;29;20027;-82
2022/10/31 11:02:22;;;;;;;33.90;19.50;;;19.20;69.70;;;;;;4947549;29;20083;-79
2022/10/31 11:05:00;;;;;;;37.45;19.45;;;19.50;69.90;;;;;;4932747;29;20020;-79
2022/10/31 11:07:38;;;;;;;37.50;20.17;;;20.10;68.30;;;;;;4931961;29;20506;-79
2022/10/31 11:10:16;;;;;;;41.13;22.13;;;20.60;67.10;;;;;;4932689;29;20043;-80
2022/10/31 11:12:44;;;;;;;41.35;20.60;;;20.40;67.00;;;;;;4932237;29;20027;-79
2022/10/31 11:15:23;;;;;;;34.45;19.20;;;20.50;66.60;;;;;;4931888;29;20031;-78
2022/10/31 11:17:51;;;;;;;38.70;20.00;;;20.50;66.80;;;;;;4931875;29;20032;-79
2022/10/31 11:20:24;;;;;;;33.50;19.38;;;20.80;66.30;;;;;;4932758;29;20471;-79
2022/10/31 11:23:00;;;;;;;40.47;22.25;;;20.60;66.40;;;;;;4931608;29;20060;-79
2022/10/31 11:25:27;;;;;;;39.78;21.65;;;20.70;66.30;;;;;;4931208;29;20024;-77
2022/10/31 11:28:00;;;;;;;37.17;20.48;;;20.60;66.80;;;;;;4931481;29;20049;-78
2022/10/31 11:30:26;;;;;;;40.03;21.70;;;20.40;66.80;;;;;;4932692;29;20118;-81
2022/10/31 11:32:52;;;;;;;36.20;19.00;;;20.70;66.20;;;;;;4932157;29;20020;-80
2022/10/31 11:35:20;;;;;;;40.90;19.65;;;20.70;65.70;;;;;;4949653;28;20035;-79
2022/10/31 11:37:49;;;;;;;33.22;19.75;;;20.30;67.00;;;;;;4934962;29;20083;-79
2022/10/31 11:40:18;;;;;;;35.10;19.63;;;19.90;68.10;;;;;;4934154;29;20020;-79
2022/10/31 11:42:44;;;;;;;33.78;19.88;;;20.00;67.30;;;;;;4933164;29;20043;-79
2022/10/31 11:45:31;;;;;;;42.72;20.38;;;19.80;68.00;;;;;;4933999;29;20071;-79
2022/10/31 11:47:58;;;;;;;37.75;20.65;;;19.90;68.20;;;;;;4932615;29;20034;-80
2022/10/31 11:50:38;;;;;;;35.95;20.92;;;20.20;67.00;;;;;;4933015;29;20228;-84
2022/10/31 11:53:12;;;;;;;36.15;18.80;;;19.90;67.30;;;;;;4931911;29;20039;-79
2022/10/31 11:55:39;;;;;;;35.75;19.65;;;19.10;69.60;;;;;;4931596;29;20031;-79
2022/10/31 11:58:24;;;;;;;34.25;19.52;;;18.80;71.30;;;;;;4936269;29;20020;-80
2022/10/31 12:00:52;;;;;;;32.90;18.80;;;19.40;70.20;;;;;;4951021;28;20051;-83
2022/10/31 12:03:33;;;;;;;33.50;19.30;;;19.40;69.20;;;;;;4938759;29;20016;-81
2022/10/31 12:06:15;;;;;;;34.03;19.80;;;19.00;70.70;;;;;;4934476;29;20403;-81
2022/10/31 12:08:41;;;;;;;33.95;19.05;;;19.30;70.40;;;;;;4926873;29;20122;-79
2022/10/31 12:11:29;;;;;;;32.08;17.60;;;19.90;68.90;;;;;;4937204;29;20111;-79
2022/10/31 12:14:34;;;;;;;36.20;20.27;;;20.60;66.80;;;;;;4937940;29;20026;-79
2022/10/31 12:17:39;;;;;;;29.85;17.05;;;21.10;65.60;;;;;;4948816;29;20044;-82
2022/10/31 12:20:34;;;;;;;36.67;19.50;;;21.10;64.70;;;;;;4936258;29;20024;-82
2022/10/31 12:23:18;;;;;;;30.00;17.88;;;20.20;67.00;;;;;;4953281;29;20035;-79
2022/10/31 12:26:17;;;;;;;30.10;18.88;;;19.40;69.50;;;;;;4952340;28;20062;-79
2022/10/31 12:29:23;;;;;;;30.63;17.02;;;19.00;70.10;;;;;;4936314;29;20510;-80
2022/10/31 12:32:07;;;;;;;28.77;18.15;;;18.80;70.70;;;;;;4932029;29;20039;-80
2022/10/31 12:34:51;;;;;;;30.30;17.38;;;18.40;72.80;;;;;;4591096;29;10000367;-80
2022/10/31 12:37:23;;;;;;;39.95;18.27;;;18.30;73.20;;;;;;4933413;29;20020;-79
2022/10/31 12:40:19;;;;;;;79.97;23.77;;;18.70;71.40;;;;;;4933671;29;20483;-79
2022/10/31 12:42:57;;;;;;;142.32;25.73;;;19.20;71.20;;;;;;4935276;29;20492;-80
2022/10/31 12:45:35;;;;;;;31.15;18.90;;;20.00;68.90;;;;;;4937506;29;20036;-80
2022/10/31 12:48:00;;;;;;;30.95;18.23;;;20.30;66.90;;;;;;4936329;29;20046;-81